sensor_id;sensor_type;location;lat;lon;timestamp;P1;durP1;ratioP1;P2;durP2;ratioP2
80338;SDS011;69655;44.498;0.166;2023-06-05T00:00:20;4.67;;;2.00;;
80338;SDS011;69655;44.498;0.166;2023-06-05T00:05:54;4.30;;;1.90;;
80338;SDS011;69655;44.498;0.166;2023-06-05T00:11:27;5.37;;;1.40;;
80338;SDS011;69655;44.498;0.166;2023-06-05T00:17:00;3.90;;;1.60;;
80338;SDS011;69655;44.498;0.166;2023-06-05T00:22:35;3.40;;;1.80;;
80338;SDS011;69655;44.498;0.166;2023-06-05T00:28:06;3.23;;;1.80;;
80338;SDS011;69655;44.498;0.166;2023-06-05T00:33:39;3.07;;;1.47;;
80338;SDS011;69655;44.498;0.166;2023-06-05T00:39:11;3.20;;;1.53;;
80338;SDS011;69655;44.498;0.166;2023-06-05T00:44:44;3.20;;;1.57;;
80338;SDS011;69655;44.498;0.166;2023-06-05T00:50:17;3.03;;;1.37;;
80338;SDS011;69655;44.498;0.166;2023-06-05T00:55:50;2.53;;;1.30;;
80338;SDS011;69655;44.498;0.166;2023-06-05T01:01:23;3.73;;;1.50;;
80338;SDS011;69655;44.498;0.166;2023-06-05T01:06:56;3.50;;;1.57;;
80338;SDS011;69655;44.498;0.166;2023-06-05T01:12:32;3.50;;;1.80;;
80338;SDS011;69655;44.498;0.166;2023-06-05T01:18:03;4.10;;;1.63;;
80338;SDS011;69655;44.498;0.166;2023-06-05T01:23:36;5.93;;;1.37;;
80338;SDS011;69655;44.498;0.166;2023-06-05T01:29:10;3.50;;;1.70;;
80338;SDS011;69655;44.498;0.166;2023-06-05T01:34:43;3.63;;;1.63;;
80338;SDS011;69655;44.498;0.166;2023-06-05T01:40:17;2.93;;;1.57;;
80338;SDS011;69655;44.498;0.166;2023-06-05T01:45:49;4.80;;;1.90;;
80338;SDS011;69655;44.498;0.166;2023-06-05T01:51:22;5.47;;;1.80;;
80338;SDS011;69655;44.498;0.166;2023-06-05T01:56:55;4.80;;;2.60;;
80338;SDS011;69655;44.498;0.166;2023-06-05T02:02:29;5.90;;;2.40;;
80338;SDS011;69655;44.498;0.166;2023-06-05T02:08:01;4.03;;;1.97;;
80338;SDS011;69655;44.498;0.166;2023-06-05T02:13:33;5.30;;;1.90;;
80338;SDS011;69655;44.498;0.166;2023-06-05T02:19:06;2.90;;;1.43;;
80338;SDS011;69655;44.498;0.166;2023-06-05T02:24:41;4.80;;;1.97;;
80338;SDS011;69655;44.498;0.166;2023-06-05T02:30:13;3.17;;;1.63;;
80338;SDS011;69655;44.498;0.166;2023-06-05T02:35:46;4.70;;;1.70;;
80338;SDS011;69655;44.498;0.166;2023-06-05T02:41:21;5.40;;;2.40;;
80338;SDS011;69655;44.498;0.166;2023-06-05T02:46:53;3.20;;;1.70;;
80338;SDS011;69655;44.498;0.166;2023-06-05T02:52:24;5.03;;;1.87;;
80338;SDS011;69655;44.498;0.166;2023-06-05T02:57:59;4.17;;;1.70;;
80338;SDS011;69655;44.498;0.166;2023-06-05T03:03:32;3.97;;;1.90;;
80338;SDS011;69655;44.498;0.166;2023-06-05T03:09:05;5.83;;;1.97;;
80338;SDS011;69655;44.498;0.166;2023-06-05T03:14:38;5.50;;;1.80;;
80338;SDS011;69655;44.498;0.166;2023-06-05T03:20:10;3.77;;;1.70;;
80338;SDS011;69655;44.498;0.166;2023-06-05T03:25:41;3.57;;;1.80;;
80338;SDS011;69655;44.498;0.166;2023-06-05T03:31:14;6.10;;;2.77;;
80338;SDS011;69655;44.498;0.166;2023-06-05T03:36:47;6.67;;;2.10;;
80338;SDS011;69655;44.498;0.166;2023-06-05T03:42:20;5.83;;;2.07;;
80338;SDS011;69655;44.498;0.166;2023-06-05T03:47:52;5.43;;;2.00;;
80338;SDS011;69655;44.498;0.166;2023-06-05T03:53:26;4.37;;;2.00;;
80338;SDS011;69655;44.498;0.166;2023-06-05T03:58:59;6.60;;;2.13;;
80338;SDS011;69655;44.498;0.166;2023-06-05T04:04:35;3.17;;;1.67;;
80338;SDS011;69655;44.498;0.166;2023-06-05T04:10:07;5.33;;;2.00;;
80338;SDS011;69655;44.498;0.166;2023-06-05T04:15:40;9.13;;;2.30;;
80338;SDS011;69655;44.498;0.166;2023-06-05T04:21:13;3.93;;;2.13;;
80338;SDS011;69655;44.498;0.166;2023-06-05T04:26:46;3.90;;;2.00;;
80338;SDS011;69655;44.498;0.166;2023-06-05T04:32:19;4.30;;;2.37;;
80338;SDS011;69655;44.498;0.166;2023-06-05T04:37:52;4.57;;;2.03;;
80338;SDS011;69655;44.498;0.166;2023-06-05T04:43:24;4.27;;;1.83;;
80338;SDS011;69655;44.498;0.166;2023-06-05T04:48:58;4.43;;;1.83;;
80338;SDS011;69655;44.498;0.166;2023-06-05T04:54:31;5.03;;;1.97;;
80338;SDS011;69655;44.498;0.166;2023-06-05T05:05:38;8.23;;;2.67;;
80338;SDS011;69655;44.498;0.166;2023-06-05T05:11:11;6.47;;;2.43;;
80338;SDS011;69655;44.498;0.166;2023-06-05T05:16:45;5.23;;;2.00;;
80338;SDS011;69655;44.498;0.166;2023-06-05T05:22:17;4.70;;;2.70;;
80338;SDS011;69655;44.498;0.166;2023-06-05T05:33:23;4.40;;;2.60;;
80338;SDS011;69655;44.498;0.166;2023-06-05T05:38:56;4.93;;;2.07;;
80338;SDS011;69655;44.498;0.166;2023-06-05T05:44:29;5.00;;;1.93;;
80338;SDS011;69655;44.498;0.166;2023-06-05T05:50:02;3.50;;;1.93;;
80338;SDS011;69655;44.498;0.166;2023-06-05T05:55:35;3.23;;;2.00;;
80338;SDS011;69655;44.498;0.166;2023-06-05T06:01:08;5.03;;;2.67;;
80338;SDS011;69655;44.498;0.166;2023-06-05T06:06:41;6.60;;;3.10;;
80338;SDS011;69655;44.498;0.166;2023-06-05T06:12:17;7.67;;;3.90;;
80338;SDS011;69655;44.498;0.166;2023-06-05T06:23:19;7.50;;;3.90;;
80338;SDS011;69655;44.498;0.166;2023-06-05T06:28:51;6.30;;;3.03;;
80338;SDS011;69655;44.498;0.166;2023-06-05T06:34:24;8.47;;;3.47;;
80338;SDS011;69655;44.498;0.166;2023-06-05T06:39:57;7.33;;;4.10;;
80338;SDS011;69655;44.498;0.166;2023-06-05T06:45:30;7.30;;;3.40;;
80338;SDS011;69655;44.498;0.166;2023-06-05T06:51:04;5.93;;;4.23;;
80338;SDS011;69655;44.498;0.166;2023-06-05T07:02:09;7.03;;;4.10;;
80338;SDS011;69655;44.498;0.166;2023-06-05T07:07:43;7.57;;;3.30;;
80338;SDS011;69655;44.498;0.166;2023-06-05T07:13:15;4.50;;;2.83;;
80338;SDS011;69655;44.498;0.166;2023-06-05T07:18:48;5.00;;;2.70;;
80338;SDS011;69655;44.498;0.166;2023-06-05T07:24:21;4.80;;;3.20;;
80338;SDS011;69655;44.498;0.166;2023-06-05T07:29:52;8.17;;;4.13;;
80338;SDS011;69655;44.498;0.166;2023-06-05T07:35:26;5.40;;;3.50;;
80338;SDS011;69655;44.498;0.166;2023-06-05T07:40:58;5.53;;;3.10;;
80338;SDS011;69655;44.498;0.166;2023-06-05T07:46:31;8.23;;;4.93;;
80338;SDS011;69655;44.498;0.166;2023-06-05T07:52:04;6.77;;;4.60;;
80338;SDS011;69655;44.498;0.166;2023-06-05T08:03:11;7.20;;;3.90;;
80338;SDS011;69655;44.498;0.166;2023-06-05T08:08:43;6.73;;;4.33;;
80338;SDS011;69655;44.498;0.166;2023-06-05T08:14:16;6.93;;;4.57;;
80338;SDS011;69655;44.498;0.166;2023-06-05T08:19:49;7.63;;;5.10;;
80338;SDS011;69655;44.498;0.166;2023-06-05T08:25:24;7.23;;;3.77;;
80338;SDS011;69655;44.498;0.166;2023-06-05T08:30:55;7.80;;;4.83;;
80338;SDS011;69655;44.498;0.166;2023-06-05T08:36:29;7.03;;;4.27;;
80338;SDS011;69655;44.498;0.166;2023-06-05T08:42:02;6.90;;;4.20;;
80338;SDS011;69655;44.498;0.166;2023-06-05T08:47:36;6.87;;;3.23;;
80338;SDS011;69655;44.498;0.166;2023-06-05T08:53:08;5.70;;;3.50;;
80338;SDS011;69655;44.498;0.166;2023-06-05T08:58:41;7.77;;;4.57;;
80338;SDS011;69655;44.498;0.166;2023-06-05T09:04:14;5.93;;;3.50;;
80338;SDS011;69655;44.498;0.166;2023-06-05T09:09:47;7.67;;;2.80;;
80338;SDS011;69655;44.498;0.166;2023-06-05T09:15:22;5.27;;;3.10;;
80338;SDS011;69655;44.498;0.166;2023-06-05T09:20:52;4.90;;;2.90;;
80338;SDS011;69655;44.498;0.166;2023-06-05T09:26:25;5.17;;;2.80;;
80338;SDS011;69655;44.498;0.166;2023-06-05T09:31:59;3.97;;;2.40;;
80338;SDS011;69655;44.498;0.166;2023-06-05T09:43:10;4.63;;;2.77;;
80338;SDS011;69655;44.498;0.166;2023-06-05T09:48:38;4.90;;;2.97;;
80338;SDS011;69655;44.498;0.166;2023-06-05T09:54:12;4.60;;;2.50;;
80338;SDS011;69655;44.498;0.166;2023-06-05T09:59:45;4.73;;;3.07;;
80338;SDS011;69655;44.498;0.166;2023-06-05T10:05:16;5.00;;;2.30;;
80338;SDS011;69655;44.498;0.166;2023-06-05T10:10:48;3.50;;;2.10;;
80338;SDS011;69655;44.498;0.166;2023-06-05T10:16:20;5.00;;;2.37;;
80338;SDS011;69655;44.498;0.166;2023-06-05T10:21:52;4.87;;;2.37;;
80338;SDS011;69655;44.498;0.166;2023-06-05T10:27:33;6.30;;;3.07;;
80338;SDS011;69655;44.498;0.166;2023-06-05T10:33:01;12.27;;;3.03;;
80338;SDS011;69655;44.498;0.166;2023-06-05T10:38:33;3.10;;;2.07;;
80338;SDS011;69655;44.498;0.166;2023-06-05T10:44:04;3.00;;;1.70;;
80338;SDS011;69655;44.498;0.166;2023-06-05T10:49:37;3.60;;;2.47;;
80338;SDS011;69655;44.498;0.166;2023-06-05T10:55:12;4.37;;;2.17;;
80338;SDS011;69655;44.498;0.166;2023-06-05T11:06:16;3.20;;;2.07;;
80338;SDS011;69655;44.498;0.166;2023-06-05T11:11:58;6.23;;;2.27;;
80338;SDS011;69655;44.498;0.166;2023-06-05T11:17:26;3.80;;;1.90;;
80338;SDS011;69655;44.498;0.166;2023-06-05T11:28:36;3.00;;;1.70;;
80338;SDS011;69655;44.498;0.166;2023-06-05T11:34:02;4.27;;;1.63;;
80338;SDS011;69655;44.498;0.166;2023-06-05T11:45:10;3.10;;;2.20;;
80338;SDS011;69655;44.498;0.166;2023-06-05T11:50:55;4.40;;;2.20;;
80338;SDS011;69655;44.498;0.166;2023-06-05T12:01:45;5.50;;;2.03;;
80338;SDS011;69655;44.498;0.166;2023-06-05T12:12:50;4.80;;;2.20;;
80338;SDS011;69655;44.498;0.166;2023-06-05T12:24:03;4.17;;;1.70;;
80338;SDS011;69655;44.498;0.166;2023-06-05T12:29:28;2.67;;;1.50;;
80338;SDS011;69655;44.498;0.166;2023-06-05T12:35:01;3.03;;;1.90;;
80338;SDS011;69655;44.498;0.166;2023-06-05T12:40:34;4.23;;;1.80;;
80338;SDS011;69655;44.498;0.166;2023-06-05T12:46:07;3.00;;;1.40;;
80338;SDS011;69655;44.498;0.166;2023-06-05T12:51:41;3.60;;;1.40;;
80338;SDS011;69655;44.498;0.166;2023-06-05T12:57:14;2.83;;;1.50;;
80338;SDS011;69655;44.498;0.166;2023-06-05T13:02:50;2.47;;;1.50;;
80338;SDS011;69655;44.498;0.166;2023-06-05T13:08:21;3.93;;;1.50;;
80338;SDS011;69655;44.498;0.166;2023-06-05T13:13:54;3.77;;;1.30;;
80338;SDS011;69655;44.498;0.166;2023-06-05T13:19:27;2.27;;;1.10;;
80338;SDS011;69655;44.498;0.166;2023-06-05T13:24:59;1.73;;;1.10;;
80338;SDS011;69655;44.498;0.166;2023-06-05T13:30:32;2.60;;;1.17;;
80338;SDS011;69655;44.498;0.166;2023-06-05T13:36:05;3.63;;;1.40;;
80338;SDS011;69655;44.498;0.166;2023-06-05T13:41:37;1.83;;;1.10;;
80338;SDS011;69655;44.498;0.166;2023-06-05T13:47:10;3.77;;;1.40;;
80338;SDS011;69655;44.498;0.166;2023-06-05T13:52:45;3.13;;;1.30;;
80338;SDS011;69655;44.498;0.166;2023-06-05T13:58:16;4.73;;;1.70;;
80338;SDS011;69655;44.498;0.166;2023-06-05T14:03:48;3.40;;;1.40;;
80338;SDS011;69655;44.498;0.166;2023-06-05T14:09:21;2.37;;;1.20;;
80338;SDS011;69655;44.498;0.166;2023-06-05T14:14:53;4.17;;;1.87;;
80338;SDS011;69655;44.498;0.166;2023-06-05T14:20:26;5.57;;;1.80;;
80338;SDS011;69655;44.498;0.166;2023-06-05T14:25:57;3.67;;;1.63;;
80338;SDS011;69655;44.498;0.166;2023-06-05T14:31:30;5.43;;;1.90;;
80338;SDS011;69655;44.498;0.166;2023-06-05T14:37:03;3.40;;;1.43;;
80338;SDS011;69655;44.498;0.166;2023-06-05T14:42:37;4.90;;;1.70;;
80338;SDS011;69655;44.498;0.166;2023-06-05T14:48:10;3.13;;;1.73;;
80338;SDS011;69655;44.498;0.166;2023-06-05T14:53:42;3.97;;;2.37;;
80338;SDS011;69655;44.498;0.166;2023-06-05T14:59:16;3.50;;;1.97;;
80338;SDS011;69655;44.498;0.166;2023-06-05T15:04:48;5.10;;;1.73;;
80338;SDS011;69655;44.498;0.166;2023-06-05T15:10:23;2.53;;;1.33;;
80338;SDS011;69655;44.498;0.166;2023-06-05T15:15:55;2.87;;;1.40;;
80338;SDS011;69655;44.498;0.166;2023-06-05T15:21:28;3.37;;;1.43;;
80338;SDS011;69655;44.498;0.166;2023-06-05T15:27:00;5.43;;;1.70;;
80338;SDS011;69655;44.498;0.166;2023-06-05T15:32:33;4.60;;;1.70;;
80338;SDS011;69655;44.498;0.166;2023-06-05T15:38:06;2.53;;;1.40;;
80338;SDS011;69655;44.498;0.166;2023-06-05T15:43:38;2.60;;;1.50;;
80338;SDS011;69655;44.498;0.166;2023-06-05T15:54:43;3.40;;;1.80;;
80338;SDS011;69655;44.498;0.166;2023-06-05T16:00:15;4.47;;;1.80;;
80338;SDS011;69655;44.498;0.166;2023-06-05T16:05:47;2.17;;;1.43;;
80338;SDS011;69655;44.498;0.166;2023-06-05T16:11:21;3.43;;;1.57;;
80338;SDS011;69655;44.498;0.166;2023-06-05T16:16:54;1.60;;;1.10;;
80338;SDS011;69655;44.498;0.166;2023-06-05T16:22:29;2.00;;;1.10;;
80338;SDS011;69655;44.498;0.166;2023-06-05T16:28:00;1.40;;;0.93;;
80338;SDS011;69655;44.498;0.166;2023-06-05T16:33:32;3.00;;;1.30;;
80338;SDS011;69655;44.498;0.166;2023-06-05T16:39:05;1.60;;;1.20;;
80338;SDS011;69655;44.498;0.166;2023-06-05T16:44:37;2.10;;;1.10;;
80338;SDS011;69655;44.498;0.166;2023-06-05T16:50:09;2.33;;;1.13;;
80338;SDS011;69655;44.498;0.166;2023-06-05T16:55:43;3.60;;;1.50;;
80338;SDS011;69655;44.498;0.166;2023-06-05T17:01:16;3.60;;;1.63;;
80338;SDS011;69655;44.498;0.166;2023-06-05T17:06:50;2.57;;;1.40;;
80338;SDS011;69655;44.498;0.166;2023-06-05T17:12:23;2.90;;;1.50;;
80338;SDS011;69655;44.498;0.166;2023-06-05T17:17:56;3.13;;;1.50;;
80338;SDS011;69655;44.498;0.166;2023-06-05T17:23:28;2.90;;;1.40;;
80338;SDS011;69655;44.498;0.166;2023-06-05T17:29:01;2.87;;;1.60;;
80338;SDS011;69655;44.498;0.166;2023-06-05T17:34:34;2.07;;;1.20;;
80338;SDS011;69655;44.498;0.166;2023-06-05T17:45:39;2.67;;;1.23;;
80338;SDS011;69655;44.498;0.166;2023-06-05T17:51:11;2.83;;;1.20;;
80338;SDS011;69655;44.498;0.166;2023-06-05T17:56:48;3.30;;;1.50;;
80338;SDS011;69655;44.498;0.166;2023-06-05T18:02:17;2.93;;;1.30;;
80338;SDS011;69655;44.498;0.166;2023-06-05T18:07:49;3.83;;;1.70;;
80338;SDS011;69655;44.498;0.166;2023-06-05T18:13:22;3.10;;;1.63;;
80338;SDS011;69655;44.498;0.166;2023-06-05T18:18:55;3.40;;;1.20;;
80338;SDS011;69655;44.498;0.166;2023-06-05T18:24:28;3.23;;;1.33;;
80338;SDS011;69655;44.498;0.166;2023-06-05T18:29:59;2.67;;;1.20;;
80338;SDS011;69655;44.498;0.166;2023-06-05T18:35:32;3.10;;;1.40;;
80338;SDS011;69655;44.498;0.166;2023-06-05T18:41:04;3.40;;;1.60;;
80338;SDS011;69655;44.498;0.166;2023-06-05T18:46:37;3.77;;;2.20;;
80338;SDS011;69655;44.498;0.166;2023-06-05T18:52:10;5.33;;;1.93;;
80338;SDS011;69655;44.498;0.166;2023-06-05T18:57:41;2.97;;;1.57;;
80338;SDS011;69655;44.498;0.166;2023-06-05T19:03:13;2.10;;;1.23;;
80338;SDS011;69655;44.498;0.166;2023-06-05T19:08:46;3.23;;;1.37;;
80338;SDS011;69655;44.498;0.166;2023-06-05T19:14:18;3.50;;;1.23;;
80338;SDS011;69655;44.498;0.166;2023-06-05T19:19:51;2.97;;;1.33;;
80338;SDS011;69655;44.498;0.166;2023-06-05T19:25:24;1.40;;;1.03;;
80338;SDS011;69655;44.498;0.166;2023-06-05T19:30:57;2.90;;;1.40;;
80338;SDS011;69655;44.498;0.166;2023-06-05T19:36:31;3.13;;;1.37;;
80338;SDS011;69655;44.498;0.166;2023-06-05T19:42:05;3.50;;;1.20;;
80338;SDS011;69655;44.498;0.166;2023-06-05T19:47:37;2.97;;;1.37;;
80338;SDS011;69655;44.498;0.166;2023-06-05T19:58:43;4.00;;;1.77;;
80338;SDS011;69655;44.498;0.166;2023-06-05T20:04:15;5.73;;;2.00;;
80338;SDS011;69655;44.498;0.166;2023-06-05T20:09:49;3.10;;;1.60;;
80338;SDS011;69655;44.498;0.166;2023-06-05T20:15:21;5.03;;;2.07;;
80338;SDS011;69655;44.498;0.166;2023-06-05T20:20:54;3.50;;;1.53;;
80338;SDS011;69655;44.498;0.166;2023-06-05T20:26:28;3.20;;;1.53;;
80338;SDS011;69655;44.498;0.166;2023-06-05T20:32:00;4.93;;;2.20;;
80338;SDS011;69655;44.498;0.166;2023-06-05T20:37:33;3.53;;;1.70;;
80338;SDS011;69655;44.498;0.166;2023-06-05T20:43:06;4.10;;;1.80;;
80338;SDS011;69655;44.498;0.166;2023-06-05T20:48:38;3.43;;;1.80;;
80338;SDS011;69655;44.498;0.166;2023-06-05T20:54:11;4.20;;;1.80;;
80338;SDS011;69655;44.498;0.166;2023-06-05T20:59:45;3.77;;;1.70;;
80338;SDS011;69655;44.498;0.166;2023-06-05T21:05:16;4.97;;;1.50;;
80338;SDS011;69655;44.498;0.166;2023-06-05T21:10:49;3.37;;;1.60;;
80338;SDS011;69655;44.498;0.166;2023-06-05T21:16:22;4.20;;;1.73;;
80338;SDS011;69655;44.498;0.166;2023-06-05T21:21:55;2.70;;;1.40;;
80338;SDS011;69655;44.498;0.166;2023-06-05T21:27:29;3.63;;;1.73;;
80338;SDS011;69655;44.498;0.166;2023-06-05T21:32:59;3.07;;;1.60;;
80338;SDS011;69655;44.498;0.166;2023-06-05T21:38:32;2.23;;;1.30;;
80338;SDS011;69655;44.498;0.166;2023-06-05T21:44:04;2.70;;;1.43;;
80338;SDS011;69655;44.498;0.166;2023-06-05T21:49:37;2.63;;;1.47;;
80338;SDS011;69655;44.498;0.166;2023-06-05T21:55:10;4.07;;;1.60;;
80338;SDS011;69655;44.498;0.166;2023-06-05T22:00:43;2.77;;;1.43;;
80338;SDS011;69655;44.498;0.166;2023-06-05T22:06:18;3.07;;;1.57;;
80338;SDS011;69655;44.498;0.166;2023-06-05T22:17:20;3.37;;;1.67;;
80338;SDS011;69655;44.498;0.166;2023-06-05T22:22:53;4.67;;;1.80;;
80338;SDS011;69655;44.498;0.166;2023-06-05T22:28:26;5.17;;;1.90;;
80338;SDS011;69655;44.498;0.166;2023-06-05T22:33:59;4.83;;;1.90;;
80338;SDS011;69655;44.498;0.166;2023-06-05T22:45:06;4.07;;;1.57;;
80338;SDS011;69655;44.498;0.166;2023-06-05T22:50:38;4.33;;;1.93;;
80338;SDS011;69655;44.498;0.166;2023-06-05T23:01:44;4.67;;;1.80;;
80338;SDS011;69655;44.498;0.166;2023-06-05T23:07:17;5.20;;;2.30;;
80338;SDS011;69655;44.498;0.166;2023-06-05T23:12:49;4.37;;;1.87;;
80338;SDS011;69655;44.498;0.166;2023-06-05T23:18:23;3.23;;;1.60;;
80338;SDS011;69655;44.498;0.166;2023-06-05T23:23:56;4.90;;;1.97;;
80338;SDS011;69655;44.498;0.166;2023-06-05T23:29:29;6.57;;;2.47;;
80338;SDS011;69655;44.498;0.166;2023-06-05T23:35:02;3.30;;;1.77;;
80338;SDS011;69655;44.498;0.166;2023-06-05T23:40:34;3.97;;;1.90;;
80338;SDS011;69655;44.498;0.166;2023-06-05T23:46:07;4.83;;;1.97;;
80338;SDS011;69655;44.498;0.166;2023-06-05T23:51:41;3.20;;;1.93;;
80338;SDS011;69655;44.498;0.166;2023-06-05T23:57:13;3.43;;;1.77;;
